Richlands, North Carolina
Current Conditions -  °F | °C
As of 1:15 AM on Wednesday 22 Oct 2014 (Local Time) from KOAJ Reporting Station
Overcast Overcast  
Wind Chill: 61°   Ceiling: 6500
Heat Index: 61°   Visibility: 10mi
Dew Point: 45°   Wind: 3mph
Humidity: 55%   Direction: 310°NW
Pressure: 29.89"   Gusts: NA
Location:  34.9°N, 77.55°W
Report Text: KOAJ 220515Z AUTO 31003KT 10SM BKN065 OVC080 16/07 A2989 RMK AO1
Loading
Personal Weather Stations






























Interactive Weather Map
Tropical Storm Tracking
New forecast layout! Learn more

10-Day Weather Forecast

Advertisements
Track Severe Weather on mobile